Map

Track Data

SID SEASON NUMBER BASIN SUBBASIN NAME ISO_TIME NATURE LAT LON WMO_WIND WMO_PRES WMO_AGENCY TRACK_TYPE DIST2LAND LANDFALL IFLAG USA_AGENCY USA_ATCF_ID USA_LAT USA_LON USA_RECORD USA_STATUS USA_WIND USA_PRES USA_SSHS USA_R34_NE USA_R34_SE USA_R34_SW USA_R34_NW USA_R50_NE USA_R50_SE USA_R50_SW USA_R50_NW USA_R64_NE USA_R64_SE USA_R64_SW USA_R64_NW USA_POCI USA_ROCI USA_RMW USA_EYE TOKYO_LAT TOKYO_LON TOKYO_GRADE TOKYO_WIND TOKYO_PRES TOKYO_R50_DIR TOKYO_R50_LONG TOKYO_R50_SHORT TOKYO_R30_DIR TOKYO_R30_LONG TOKYO_R30_SHORT TOKYO_LAND CMA_LAT CMA_LON CMA_CAT CMA_WIND CMA_PRES HKO_LAT HKO_LON HKO_CAT HKO_WIND HKO_PRES NEWDELHI_LAT NEWDELHI_LON NEWDELHI_GRADE NEWDELHI_WIND NEWDELHI_PRES NEWDELHI_CI NEWDELHI_DP NEWDELHI_POCI REUNION_LAT REUNION_LON REUNION_TYPE REUNION_WIND REUNION_PRES REUNION_TNUM REUNION_CI REUNION_RMW REUNION_R34_NE REUNION_R34_SE REUNION_R34_SW REUNION_R34_NW REUNION_R50_NE REUNION_R50_SE REUNION_R50_SW REUNION_R50_NW REUNION_R64_NE REUNION_R64_SE REUNION_R64_SW REUNION_R64_NW BOM_LAT BOM_LON BOM_TYPE BOM_WIND BOM_PRES BOM_TNUM BOM_CI BOM_RMW BOM_R34_NE BOM_R34_SE BOM_R34_SW BOM_R34_NW BOM_R50_NE BOM_R50_SE BOM_R50_SW BOM_R50_NW BOM_R64_NE BOM_R64_SE BOM_R64_SW BOM_R64_NW BOM_ROCI BOM_POCI BOM_EYE BOM_POS_METHOD BOM_PRES_METHOD NADI_LAT NADI_LON NADI_CAT NADI_WIND NADI_PRES WELLINGTON_LAT WELLINGTON_LON WELLINGTON_WIND WELLINGTON_PRES DS824_LAT DS824_LON DS824_STAGE DS824_WIND DS824_PRES TD9636_LAT TD9636_LON TD9636_STAGE TD9636_WIND TD9636_PRES TD9635_LAT TD9635_LON TD9635_WIND TD9635_PRES TD9635_ROCI NEUMANN_LAT NEUMANN_LON NEUMANN_CLASS NEUMANN_WIND NEUMANN_PRES MLC_LAT MLC_LON MLC_CLASS MLC_WIND MLC_PRES USA_GUST BOM_GUST BOM_GUST_PER REUNION_GUST REUNION_GUST_PER USA_SEAHGT USA_SEARAD_NE USA_SEARAD_SE USA_SEARAD_SW USA_SEARAD_NW STORM_SPEED STORM_DIR
1957311S06180 1958 79 SP MM NOT_NAMED 1957-11-07 06:00:00 TS -5.50000 180.400 main 1165 1165 O________OO___ jtwc_sh SH011958 -5.50000 -179.600 15 -1 -5.50000 180.400 TC 15 -5.50000 -179.600 1 15 11 304
1957311S06180 1958 79 SP MM NOT_NAMED 1957-11-07 09:00:00 TS -5.19809 179.955 main 1219 1219 P________PP___ SH011958 -5.20256 179.957 12 -1 -5.20256 179.957 TC 12 -5.18916 179.950 1 11 304
1957311S06180 1958 79 SP MM NOT_NAMED 1957-11-07 12:00:00 TS -4.89418 179.497 main 1266 1266 O________OP___ jtwc_sh SH011958 -4.90000 179.500 10 -1 -4.90000 179.500 TC 10 -4.88253 179.490 1 11 303
1957311S06180 1958 79 SP MM NOT_NAMED 1957-11-07 15:00:00 TS -4.58986 179.013 main 1302 1302 P________PP___ SH011958 -4.59246 179.015 7 -1 -4.59246 179.015 TC 7 -4.58466 179.010 1 12 301
1957311S06180 1958 79 SP MM NOT_NAMED 1957-11-07 18:00:00 TS -4.30000 178.500 main 1340 1340 O________OO___ jtwc_sh SH011958 -4.30000 178.500 5 -1 -4.30000 178.500 TC 5 -4.30000 178.500 1 12 298
1957311S06180 1958 79 SP MM NOT_NAMED 1957-11-07 21:00:00 TS -4.02994 177.948 main 1382 1382 P________PP___ SH011958 -4.02751 177.943 5 -1 -4.02751 177.943 TC 5 -4.03480 177.959 1 12 295
1957311S06180 1958 79 SP MM NOT_NAMED 1957-11-08 00:00:00 TS -3.80089 177.406 main 1413 1413 O________OP___ jtwc_sh SH011958 -3.80000 177.400 5 -1 -3.80000 177.400 TC 5 -3.80267 177.418 1 11 292
1957311S06180 1958 79 SP MM NOT_NAMED 1957-11-08 03:00:00 TS -3.61472 176.909 main 1446 1446 P________PP___ SH011958 -3.61249 176.905 5 -1 -3.61249 176.905 TC 5 -3.61918 176.918 1 10 288
1957311S06180 1958 79 SP MM NOT_NAMED 1957-11-08 06:00:00 TS -3.50000 176.500 main 1467 1467 O________OO___ jtwc_sh SH011958 -3.50000 176.500 5 -1 -3.50000 176.500 TC 5 -3.50000 176.500 1 5 7 281
1957311S06180 1958 79 SP MM NOT_NAMED 1957-11-08 09:00:00 TS -3.47634 176.200 main 1475 1475 P________PP___ SH011958 -3.46997 176.205 5 -1 -3.46997 176.205 TC 5 -3.44797 176.210 1 5 269
1957311S06180 1958 79 SP MM NOT_NAMED 1957-11-08 12:00:00 TS -3.51277 175.966 main 1481 1477 O________OP___ jtwc_sh SH011958 -3.50000 176.000 5 -1 -3.50000 176.000 TC 5 -3.45982 176.003 1 4 258
1957311S06180 1958 79 SP MM NOT_NAMED 1957-11-08 15:00:00 TS -3.56592 175.772 main 1477 1477 P________PP___ SH011958 -3.53497 175.857 7 -1 -3.53497 175.857 TC 7 -3.51676 175.844 1 4 252
1957311S06180 1958 79 SP MM NOT_NAMED 1957-11-08 18:00:00 TS -3.63440 175.594 main 1484 1476 O________OO___ jtwc_sh SH011958 -3.60000 175.700 10 -1 -3.60000 175.700 TC 10 -3.60000 175.700 1 5 252
1957311S06180 1958 79 SP MM NOT_NAMED 1957-11-08 21:00:00 TS -3.71278 175.325 main 1484 1476 P________PP___ SH011958 -3.69254 175.385 10 -1 -3.69254 175.385 TC 10 -3.66626 175.449 1 5 251
1957311S06180 1958 79 SP MM NOT_NAMED 1957-11-09 00:00:00 TS -3.80473 175.094 main 1480 1473 O________OP___ jtwc_sh SH011958 -3.80000 175.100 10 -1 -3.80000 175.100 TC 10 -3.75500 175.215 1 4 242
1957311S06180 1958 79 SP MM NOT_NAMED 1957-11-09 03:00:00 TS -3.89543 174.978 main 1473 1462 P________PP___ SH011958 -3.89247 174.968 12 -1 -3.89247 174.968 TC 12 -3.86623 175.049 1 2 206
1957311S06180 1958 79 SP MM NOT_NAMED 1957-11-09 06:00:00 TS -4.00000 175.000 main 1462 1444 O________OO___ jtwc_sh SH011958 -4.00000 175.000 15 -1 -4.00000 175.000 TC 15 -4.00000 175.000 1 15 3 139
1957311S06180 1958 79 SP MM NOT_NAMED 1957-11-09 09:00:00 TS -4.12825 175.180 main 1444 1416 P________PP___ SH011958 -4.13502 175.205 15 -1 -4.13502 175.205 TC 15 -4.16972 175.128 1 5 121
1957311S06180 1958 79 SP MM NOT_NAMED 1957-11-09 12:00:00 TS -4.27779 175.456 main 1413 1395 O________OP___ jtwc_sh SH011958 -4.30000 175.500 15 -1 -4.30000 175.500 TC 15 -4.35757 175.372 1 6 120
1957311S06180 1958 79 SP MM NOT_NAMED 1957-11-09 15:00:00 TS -4.45409 175.738 main 1384 1363 P________PP___ SH011958 -4.51499 175.750 17 -1 -4.51499 175.750 TC 17 -4.54162 175.681 1 7 120
1957311S06180 1958 79 SP MM NOT_NAMED 1957-11-09 18:00:00 TS -4.61266 176.028 main 1363 1343 O________OO___ jtwc_sh SH011958 -4.70000 176.000 20 -1 -4.70000 176.000 TC 20 -4.70000 176.000 1 6 112
1957311S06180 1958 79 SP MM NOT_NAMED 1957-11-09 21:00:00 TS -4.68903 176.318 main 1343 1334 P________PP___ SH011958 -4.76499 176.250 20 -1 -4.76499 176.250 TC 20 -4.75100 176.335 1 6 104
1957311S06180 1958 79 SP MM NOT_NAMED 1957-11-10 00:00:00 TS -4.75118 176.593 main 1323 1318 O________OP___ jtwc_sh SH011958 -4.80000 176.500 20 -1 -4.80000 176.500 TC 20 -4.78257 176.657 1 6 105
1957311S06180 1958 79 SP MM NOT_NAMED 1957-11-10 03:00:00 TS -4.83466 176.855 main 1315 1291 P________PP___ SH011958 -4.84752 176.802 22 -1 -4.84752 176.802 TC 22 -4.84783 176.901 1 5 121
1957311S06180 1958 79 SP MM NOT_NAMED 1957-11-10 06:00:00 TS -5.00000 177.000 main 1291 1258 O________OO___ jtwc_sh SH011958 -5.00000 177.000 25 -1 -5.00000 177.000 TC 25 -5.00000 177.000 1 25 5 170
1957311S06180 1958 79 SP MM NOT_NAMED 1957-11-10 09:00:00 TS -5.32913 176.939 main 1261 1220 P________PP___ SH011958 -5.35494 177.005 25 -1 -5.35494 177.005 TC 25 -5.33489 176.909 1 8 202
1957311S06180 1958 79 SP MM NOT_NAMED 1957-11-10 12:00:00 TS -5.73342 176.710 main 1223 1190 O________OP___ jtwc_sh SH011958 -5.80000 176.800 25 -1 -5.80000 176.800 TC 25 -5.75487 176.668 1 10 216
1957311S06180 1958 79 SP MM NOT_NAMED 1957-11-10 15:00:00 TS -6.13795 176.339 main 1193 1161 P________PP___ SH011958 -6.22253 176.410 25 -1 -6.22253 176.410 TC 25 -6.19741 176.318 1 11 227
1957311S06180 1958 79 SP MM NOT_NAMED 1957-11-10 18:00:00 TS -6.51287 175.876 main 1165 1149 O________OO___ jtwc_sh SH011958 -6.60000 175.900 25 -1 -6.60000 175.900 TC 25 -6.60000 175.900 1 12 234
1957311S06180 1958 79 SP MM NOT_NAMED 1957-11-10 21:00:00 TS -6.81130 175.399 main 1153 1143 P________PP___ SH011958 -6.87999 175.400 22 -1 -6.87999 175.400 TC 22 -6.89185 175.446 1 11 240
1957311S06180 1958 79 SP MM NOT_NAMED 1957-11-11 00:00:00 TS -7.06404 174.906 main 1143 1138 O________OP___ jtwc_sh SH011958 -7.10000 174.900 20 -1 -7.10000 174.900 TC 20 -7.13294 174.943 1 11 243
1957311S06180 1958 79 SP MM NOT_NAMED 1957-11-11 03:00:00 TS -7.30170 174.423 main 1143 1127 P________PP___ SH011958 -7.32250 174.413 20 -1 -7.32250 174.413 TC 20 -7.33250 174.443 1 10 244
1957311S06180 1958 79 SP MM NOT_NAMED 1957-11-11 06:00:00 TS -7.50000 174.000 main 1127 1097 O________OO___ jtwc_sh SH011958 -7.50000 174.000 20 -1 -7.50000 174.000 TC 20 -7.50000 174.000 1 20 8 244
1957311S06180 1958 79 SP MM NOT_NAMED 1957-11-11 09:00:00 TS -7.63820 173.712 main 1097 1074 P________PP___ SH011958 -7.60742 173.720 20 -1 -7.60742 173.720 TC 20 -7.65344 173.685 1 6 244
1957311S06180 1958 79 SP MM NOT_NAMED 1957-11-11 12:00:00 TS -7.75399 173.475 main 1066 1036 O________OP___ jtwc_sh SH011958 -7.70000 173.500 20 -1 -7.70000 173.500 TC 20 -7.77962 173.432 1 5 242
1957311S06180 1958 79 SP MM NOT_NAMED 1957-11-11 15:00:00 TS -7.88859 173.235 main 1036 1013 P________PP___ SH011958 -7.84999 173.250 20 -1 -7.84999 173.250 TC 20 -7.89101 173.213 1 5 241
1957311S06180 1958 79 SP MM NOT_NAMED 1957-11-11 18:00:00 TS -8.01835 172.999 main 1013 991 O________OO___ jtwc_sh SH011958 -8.00000 173.000 20 -1 -8.00000 173.000 TC 20 -8.00000 173.000 1 5 244
1957311S06180 1958 79 SP MM NOT_NAMED 1957-11-11 21:00:00 TS -8.12377 172.758 main 991 962 P________PP___ SH011958 -8.09999 172.750 20 -1 -8.09999 172.750 TC 20 -8.12082 172.766 1 5 246
1957311S06180 1958 79 SP MM NOT_NAMED 1957-11-12 00:00:00 TS -8.22903 172.515 main 962 931 O________OP___ jtwc_sh SH011958 -8.20000 172.500 20 -1 -8.20000 172.500 TC 20 -8.24231 172.530 1 5 244
1957311S06180 1958 79 SP MM NOT_NAMED 1957-11-12 03:00:00 TS -8.35810 172.268 main 931 902 P________PP___ SH011958 -8.34247 172.257 20 -1 -8.34247 172.257 TC 20 -8.36766 172.279 1 6 242
1957311S06180 1958 79 SP MM NOT_NAMED 1957-11-12 06:00:00 TS -8.50000 172.000 main 902 874 O________OO___ jtwc_sh SH011958 -8.50000 172.000 20 -1 -8.50000 172.000 TC 20 -8.50000 172.000 1 20 7 244
1957311S06180 1958 79 SP MM NOT_NAMED 1957-11-12 09:00:00 TS -8.63936 171.675 main 874 831 P________PP___ SH011958 -8.64995 171.722 20 -1 -8.64995 171.722 TC 20 -8.63059 171.687 1 7 247
1957311S06180 1958 79 SP MM NOT_NAMED 1957-11-12 12:00:00 TS -8.78238 171.311 main 831 798 O________OP___ jtwc_sh SH011958 -8.80000 171.400 20 -1 -8.80000 171.400 TC 20 -8.76994 171.345 1 8 249
1957311S06180 1958 79 SP MM NOT_NAMED 1957-11-12 15:00:00 TS -8.92821 170.916 main 798 757 P________PP___ SH011958 -8.94245 171.030 20 -1 -8.94245 171.030 TC 20 -8.92431 170.980 1 9 249
1957311S06180 1958 79 SP MM NOT_NAMED 1957-11-12 18:00:00 TS -9.09120 170.492 main 757 708 O________OO___ jtwc_sh SH011958 -9.10000 170.600 20 -1 -9.10000 170.600 TC 20 -9.10000 170.600 1 10 249
1957311S06180 1958 79 SP MM NOT_NAMED 1957-11-12 21:00:00 TS -9.26958 170.004 main 708 667 P________PP___ SH011958 -9.28510 170.085 22 -1 -9.28510 170.085 TC 22 -9.25915 170.097 1 10 247
1957311S06180 1958 79 SP MM NOT_NAMED 1957-11-13 00:00:00 TS -9.47691 169.549 main 662 627 O________OP___ jtwc_sh SH011958 -9.50000 169.600 25 -1 -9.50000 169.600 TC 25 -9.44549 169.599 1 9 242
1957311S06180 1958 79 SP MM NOT_NAMED 1957-11-13 03:00:00 TS -9.70109 169.179 main 627 587 P________PP___ SH011958 -9.70495 169.188 25 -1 -9.70495 169.188 TC 25 -9.68399 169.201 1 8 226
1957311S06180 1958 79 SP MM NOT_NAMED 1957-11-13 06:00:00 TS -10.0000 169.000 main 587 552 O________OO___ jtwc_sh SH011958 -10.0000 169.000 25 -1 -10.0000 169.000 TC 25 -10.0000 169.000 1 25 7 185
1957311S06180 1958 79 SP MM NOT_NAMED 1957-11-13 09:00:00 TS -10.4395 169.111 main 552 516 P________PP___ SH011958 -10.4625 169.145 25 -1 -10.4625 169.145 TC 25 -10.4412 169.120 1 10 157
1957311S06180 1958 79 SP MM NOT_NAMED 1957-11-13 12:00:00 TS -10.9468 169.406 main 522 491 O________OP___ jtwc_sh SH011958 -11.0000 169.500 25 -1 -11.0000 169.500 TC 25 -10.9552 169.438 1 12 148
1957311S06180 1958 79 SP MM NOT_NAMED 1957-11-13 15:00:00 TS -11.4561 169.770 main 488 475 P________PP___ SH011958 -11.5151 169.892 25 -1 -11.5151 169.892 TC 25 -11.4915 169.863 1 13 143
1957311S06180 1958 79 SP MM NOT_NAMED 1957-11-13 18:00:00 TS -11.9467 170.164 main 482 466 O________OO___ jtwc_sh SH011958 -12.0000 170.300 25 -1 -12.0000 170.300 TC 25 -12.0000 170.300 1 12 143
1957311S06180 1958 79 SP MM NOT_NAMED 1957-11-13 21:00:00 TS -12.3875 170.490 main 468 461 P________PP___ SH011958 -12.4224 170.615 25 -1 -12.4224 170.615 TC 25 -12.4390 170.587 1 11 143
1957311S06180 1958 79 SP MM NOT_NAMED 1957-11-14 00:00:00 TS -12.7907 170.811 main 469 469 O________OP___ jtwc_sh SH011958 -12.8000 170.900 25 -1 -12.8000 170.900 TC 25 -12.8394 170.870 1 10 141
1957311S06180 1958 79 SP MM NOT_NAMED 1957-11-14 03:00:00 TS -13.1701 171.143 main 476 476 P________PP___ SH011958 -13.1724 171.185 25 -1 -13.1724 171.185 TC 25 -13.1952 171.168 1 10 137
1957311S06180 1958 79 SP MM NOT_NAMED 1957-11-14 06:00:00 TS -13.5000 171.500 main 503 503 O________OO___ jtwc_sh SH011958 -13.5000 171.500 25 -1 -13.5000 171.500 TC 25 -13.5000 171.500 1 25 9 130
1957311S06180 1958 79 SP MM NOT_NAMED 1957-11-14 09:00:00 TS -13.7713 171.881 main 521 521 P________PP___ SH011958 -13.7800 171.878 25 -1 -13.7800 171.878 TC 25 -13.7747 171.885 1 9 122
1957311S06180 1958 79 SP MM NOT_NAMED 1957-11-14 12:00:00 TS -13.9867 172.297 main 547 547 O________OP___ jtwc_sh SH011958 -14.0000 172.300 25 -1 -14.0000 172.300 TC 25 -13.9974 172.305 1 9 115
1957311S06180 1958 79 SP MM NOT_NAMED 1957-11-14 15:00:00 TS -14.1590 172.734 main 575 575 P________PP___ SH011958 -14.1800 172.743 25 -1 -14.1800 172.743 TC 25 -14.1715 172.747 1 9 109
1957311S06180 1958 79 SP MM NOT_NAMED 1957-11-14 18:00:00 TS -14.2810 173.185 main 581 541 O________OO___ jtwc_sh SH011958 -14.3000 173.200 25 -1 -14.3000 173.200 TC 25 -14.3000 173.200 1 9 103
1957311S06180 1958 79 SP MM NOT_NAMED 1957-11-14 21:00:00 TS -14.3575 173.631 main 541 502 P________PP___ SH011958 -14.3649 173.650 27 -1 -14.3649 173.650 TC 27 -14.3847 173.635 1 9 98
1957311S06180 1958 79 SP MM NOT_NAMED 1957-11-15 00:00:00 TS -14.4040 174.082 main 502 472 O________OP___ jtwc_sh SH011958 -14.4000 174.100 30 -1 -14.4000 174.100 TC 30 -14.4296 174.078 1 9 96
1957311S06180 1958 79 SP MM NOT_NAMED 1957-11-15 03:00:00 TS -14.4475 174.535 main 472 429 P________PP___ SH011958 -14.4424 174.543 30 -1 -14.4424 174.543 TC 30 -14.4597 174.532 1 9 96
1957311S06180 1958 79 SP MM NOT_NAMED 1957-11-15 06:00:00 TS -14.5000 175.000 main 429 388 O________OO___ jtwc_sh SH011958 -14.5000 175.000 30 -1 -14.5000 175.000 TC 30 -14.5000 175.000 1 30 10 99
1957311S06180 1958 79 SP MM NOT_NAMED 1957-11-15 09:00:00 TS -14.6044 175.506 main 388 348 P________PP___ SH011958 -14.5924 175.492 30 -1 -14.5924 175.492 TC 30 -14.5976 175.485 1 10 102
1957311S06180 1958 79 SP MM NOT_NAMED 1957-11-15 12:00:00 TS -14.7182 176.027 main 348 301 O________OP___ jtwc_sh SH011958 -14.7000 176.000 30 -1 -14.7000 176.000 TC 30 -14.7073 175.985 1 10 102
1957311S06180 1958 79 SP MM NOT_NAMED 1957-11-15 15:00:00 TS -14.8239 176.548 main 301 257 P________PP___ SH011958 -14.7999 176.500 30 -1 -14.7999 176.500 TC 30 -14.8132 176.492 1 10 101
1957311S06180 1958 79 SP MM NOT_NAMED 1957-11-15 18:00:00 TS -14.9198 177.065 main 251 213 O________OO___ jtwc_sh SH011958 -14.9000 177.000 30 -1 -14.9000 177.000 TC 30 -14.9000 177.000 1 10 101
1957311S06180 1958 79 SP MM NOT_NAMED 1957-11-15 21:00:00 TS -15.0208 177.586 main 213 183 P________PP___ SH011958 -15.0224 177.500 27 -1 -15.0224 177.500 TC 27 -14.9916 177.557 1 10 99
1957311S06180 1958 79 SP MM NOT_NAMED 1957-11-16 00:00:00 TS -15.0834 178.093 main 183 162 O________OP___ jtwc_sh SH011958 -15.1000 178.000 25 -1 -15.1000 178.000 TC 25 -15.0556 178.105 1 10 94
1957311S06180 1958 79 SP MM NOT_NAMED 1957-11-16 03:00:00 TS -15.0841 178.584 main 162 153 P________PP___ SH011958 -15.1026 178.530 25 -1 -15.1026 178.530 TC 25 -15.0667 178.600 1 9 85
1957311S06180 1958 79 SP MM NOT_NAMED 1957-11-16 06:00:00 TS -15.0000 179.000 main 155 151 O________OO___ jtwc_sh SH011958 -15.0000 179.000 25 -1 -15.0000 179.000 TC 25 -15.0000 179.000 1 25 8 69
1957311S06180 1958 79 SP MM NOT_NAMED 1957-11-16 09:00:00 TS -14.8167 179.319 main 165 162 P________PP___ SH011958 -14.7799 179.375 25 -1 -14.7799 179.375 TC 25 -14.8284 179.300 1 7 49
1957311S06180 1958 79 SP MM NOT_NAMED 1957-11-16 12:00:00 TS -14.5719 179.514 main 181 181 O________OP___ jtwc_sh SH011958 -14.5000 179.600 25 -1 -14.5000 179.600 TC 25 -14.5818 179.496 1 6 28
1957311S06180 1958 79 SP MM NOT_NAMED 1957-11-16 15:00:00 TS -14.3207 179.587 main 213 213 P________PP___ SH011958 -14.2499 179.667 27 -1 -14.2499 179.667 TC 27 -14.2942 179.594 1 5 4
1957311S06180 1958 79 SP MM NOT_NAMED 1957-11-16 18:00:00 TS -14.0588 179.553 main 236 236 O________OO___ jtwc_sh SH011958 -14.0000 179.600 30 -1 -14.0000 179.600 TC 30 -14.0000 179.600 1 5 346
1957311S06180 1958 79 SP MM NOT_NAMED 1957-11-16 21:00:00 TS -13.8046 179.449 main 272 272 P________PP___ SH011958 -13.7500 179.472 30 -1 -13.7500 179.472 TC 30 -13.7663 179.499 1 6 335
1957311S06180 1958 79 SP MM NOT_NAMED 1957-11-17 00:00:00 TS -13.5375 179.297 main 306 306 O________OP___ jtwc_sh SH011958 -13.5000 179.300 30 -1 -13.5000 179.300 TC 30 -13.5302 179.322 1 6 330
1957311S06180 1958 79 SP MM NOT_NAMED 1957-11-17 03:00:00 TS -13.2779 179.130 main 333 333 P________PP___ SH011958 -13.2650 179.127 30 -1 -13.2650 179.127 TC 30 -13.2789 179.133 1 6 332
1957311S06180 1958 79 SP MM NOT_NAMED 1957-11-17 06:00:00 TS -13.0000 179.000 main 368 368 O________OO___ jtwc_sh SH011958 -13.0000 179.000 30 -1 -13.0000 179.000 TC 30 -13.0000 179.000 1 30 7 345
1957311S06180 1958 79 SP MM NOT_NAMED 1957-11-17 09:00:00 TS -12.6519 178.955 main 401 401 P________PP___ SH011958 -12.6650 178.955 30 -1 -12.6650 178.955 TC 30 -12.6256 178.954 1 7 358
1957311S06180 1958 79 SP MM NOT_NAMED 1957-11-17 12:00:00 TS -12.2773 178.993 main 445 445 O________OP___ jtwc_sh SH011958 -12.3000 179.000 30 -1 -12.3000 179.000 TC 30 -12.2320 178.978 1 8 10
1957311S06180 1958 79 SP MM NOT_NAMED 1957-11-17 15:00:00 TS -11.8891 179.089 main 487 487 P________PP___ SH011958 -11.8974 179.090 30 -1 -11.8974 179.090 TC 30 -11.8724 179.088 1 7 24
1957311S06180 1958 79 SP MM NOT_NAMED 1957-11-17 18:00:00 TS -11.6000 179.300 main 517 515 O________OO___ jtwc_sh SH011958 -11.6000 179.300 30 -1 -11.6000 179.300 TC 30 -11.6000 179.300 1 7 59
1957311S06180 1958 79 SP MM NOT_NAMED 1957-11-17 21:00:00 TS -11.5538 179.657 main 515 515 P________PP___ SH011958 -11.5550 179.655 27 -1 -11.5550 179.655 TC 27 -11.5512 179.660 1 8 90
1957311S06180 1958 79 SP MM NOT_NAMED 1957-11-18 00:00:00 TS -11.5936 180.104 main 515 515 O________OP___ jtwc_sh SH011958 -11.6000 -179.900 25 -1 -11.6000 180.100 TC 25 -11.5809 -179.889 1 9 93
1957311S06180 1958 79 SP MM NOT_NAMED 1957-11-18 03:00:00 TS -11.6050 180.576 main 520 520 P________PP___ SH011958 -11.6101 -179.428 25 -1 -11.6101 -179.428 TC 25 -11.5950 -179.418 1 9 84
1957311S06180 1958 79 SP MM NOT_NAMED 1957-11-18 06:00:00 TS -11.5000 181.000 main 539 539 O________OO___ jtwc_sh SH011958 -11.5000 -179.000 25 -1 -11.5000 181.000 TC 25 -11.5000 -179.000 1 25 8 59
1957311S06180 1958 79 SP MM NOT_NAMED 1957-11-18 09:00:00 TS -11.1743 181.293 main 579 579 P________PP___ SH011958 -11.1674 -178.705 25 -1 -11.1674 -178.705 TC 25 -11.1881 -178.711 1 9 32
1957311S06180 1958 79 SP MM NOT_NAMED 1957-11-18 12:00:00 TS -10.7190 181.504 main 639 639 O________OP___ jtwc_sh SH011958 -10.7000 -178.500 25 -1 -10.7000 181.500 TC 25 -10.7571 -178.487 1 10 22
1957311S06180 1958 79 SP MM NOT_NAMED 1957-11-18 15:00:00 TS -10.2308 181.675 main 699 699 P________PP___ SH011958 -10.2225 -178.328 25 -1 -10.2225 -178.328 TC 25 -10.2476 -178.320 1 11 16
1957311S06180 1958 79 SP MM NOT_NAMED 1957-11-18 18:00:00 TS -9.70000 181.800 main 726 726 O________OO___ jtwc_sh SH011958 -9.70000 -178.200 25 -1 -9.70000 181.800 TC 25 -9.70000 -178.200 1 11 12
1957311S06180 1958 79 SP MM NOT_NAMED 1957-11-18 21:00:00 TS -9.15432 181.909 main 752 752 P________PP___ SH011958 -9.15749 -178.077 22 -1 -9.15749 -178.077 TC 22 -9.14798 -178.117 1 11 9
1957311S06180 1958 79 SP MM NOT_NAMED 1957-11-19 00:00:00 TS -8.59924 181.979 main 789 789 O________OP___ jtwc_sh SH011958 -8.60000 -178.000 20 -1 -8.60000 182.000 TC 20 -8.59771 -178.063 1 11 5
1957311S06180 1958 79 SP MM NOT_NAMED 1957-11-19 03:00:00 TS -8.04786 182.003 main 838 838 P________PP___ SH011958 -8.04751 -177.983 20 -1 -8.04751 -177.983 TC 20 -8.04856 -178.027 1 11 1
1957311S06180 1958 79 SP MM NOT_NAMED 1957-11-19 06:00:00 TS -7.50000 182.000 main 880 O________OO___ jtwc_sh SH011958 -7.50000 -178.000 20 -1 -7.50000 182.000 TC 20 -7.50000 -178.000 1 20 11 358

Digital Typhoon Data and Search

About IBTrACS Database

This database is a web-friendly format of International Best Track Archive for Climate Stewardship (IBTrACS), a global best track data archive curated by NOAA dating back to 1842.

Updated: 2021-12-03